Terminal Aerodrome Forecast
Issued by NWS La Crosse, WI

Home | Current Version | Previous Version | Text Only | Print | Product List | Glossary On
Versions: 1 2 3 4 5 6 7 8 9 10 11 12 13 14 15 16 17 18 19 20 21 22 23 24 25 26 27 28 29 30 31 32 33 34 35 36 37 38
000
FTUS43 KARX 252236 AAC
TAFRST
TAF AMD
KRST 252236Z 2523/2618 23015G25KT P6SM VCTS SCT035CB BKN080
     FM260000 22011KT P6SM VCSH BKN035
     FM260600 22006KT P6SM OVC015
     FM261400 22007KT P6SM VCSH BKN020=

USA.gov is the U.S. government's official web portal to all federal, state and local government web resources and services.